Terminal Aerodrome Forecast
Issued by NWS

Home | Current Version | Previous Version | Text Only | Print | Product List | Glossary On
Versions: 1 2 3 4 5 6 7 8 9 10 11 12 13 14 15 16 17
293
FTUS45 KFGZ 290544
TAFSEZ
TAF
KSEZ 290544Z 2906/3006 VRB05KT P6SM SCT045 BKN060
     FM291800 29008G16KT P6SM SCT050 PROB30 2918/2924 -SHRA BKN040
     FM300300 04008KT P6SM FEW050=

USA.gov is the U.S. government's official web portal to all federal, state and local government web resources and services.